Time;durP1;ratioP1;P1;durP2;ratioP2;P2;SDS_P1;SDS_P2;PMS_P1;PMS_P2;Temp;Humidity;BMP_temperature;BMP_pressure;BME280_temperature;BME280_humidity;BME280_pressure;Samples;Min_cycle;Max_cycle;Signal;HPM_P1;HPM_P2
2023/07/15 00:00:24;;;;;;;7.00;4.30;;;;;;;-143.84;75.21;45056.69;5050503;28;20880;-56
2023/07/15 00:02:52;;;;;;;7.20;4.37;;;;;;;-143.84;75.51;45058.59;5050082;28;20449;-56
2023/07/15 00:05:21;;;;;;;5.90;3.83;;;;;;;-143.84;75.30;45071.91;5050203;28;20969;-56
2023/07/15 00:07:49;;;;;;;10.17;4.10;;;;;;;-143.84;75.15;45068.13;5049982;28;20442;-56
2023/07/15 00:10:18;;;;;;;5.57;3.77;;;;;;;-143.84;75.05;45079.53;5050277;28;20468;-56
2023/07/15 00:12:46;;;;;;;9.40;4.77;;;;;;;-143.84;75.32;45037.66;5049888;28;20437;-56
2023/07/15 00:15:14;;;;;;;5.53;4.13;;;;;;;-143.84;75.51;45049.06;5050369;28;20485;-56
2023/07/15 00:17:42;;;;;;;7.97;4.90;;;;;;;-143.84;76.00;45083.34;5050049;28;20540;-56
2023/07/15 00:20:14;;;;;;;7.23;3.73;;;;;;;-143.84;75.73;45068.13;5050275;28;20453;-56
2023/07/15 00:22:43;;;;;;;4.30;3.90;;;;;;;-143.84;75.83;45062.41;5049829;28;20531;-56
2023/07/15 00:25:15;;;;;;;4.70;3.60;;;;;;;-143.84;76.20;45035.75;5050046;28;20437;-56
2023/07/15 00:27:42;;;;;;;9.47;3.80;;;;;;;-143.84;76.14;45077.63;5049753;28;20447;-56
2023/07/15 00:30:13;;;;;;;8.43;3.87;;;;;;;-143.84;76.15;45070.00;5049801;28;20452;-56
2023/07/15 00:32:41;;;;;;;5.50;4.03;;;;;;;-143.84;76.02;45062.41;5049719;28;21037;-56
2023/07/15 00:35:20;;;;;;;13.83;3.83;;;;;;;-143.84;76.24;45060.50;5049378;28;20486;-56
2023/07/15 00:37:47;;;;;;;8.57;4.13;;;;;;;-143.84;76.43;45064.31;5049404;28;20976;-56
2023/07/15 00:40:15;;;;;;;7.27;4.37;;;;;;;-143.84;76.47;45070.00;5049618;28;20810;-56
2023/07/15 00:43:02;;;;;;;7.63;4.07;;;;;;;-143.84;76.41;45052.88;5049514;28;20445;-56
2023/07/15 00:45:29;;;;;;;7.30;3.27;;;;;;;-143.84;76.00;45049.06;5049129;28;20995;-56
2023/07/15 00:48:05;;;;;;;9.87;4.20;;;;;;;-143.84;75.93;45062.41;5049640;28;20926;-56
2023/07/15 00:50:33;;;;;;;7.17;3.83;;;;;;;-143.84;75.87;45056.69;5046266;28;20748;-56
2023/07/15 00:53:00;;;;;;;5.80;3.90;;;;;;;-143.84;76.04;45014.78;5047703;28;20867;-56
2023/07/15 00:55:28;;;;;;;5.03;3.90;;;;;;;-143.84;76.30;45049.06;5049389;28;20436;-56
2023/07/15 00:57:57;;;;;;;7.07;3.93;;;;;;;-143.84;76.17;45049.06;5049329;28;21202;-56
2023/07/15 01:00:25;;;;;;;9.50;5.27;;;;;;;-143.84;76.00;45043.34;5049047;28;20981;-56
2023/07/15 01:02:53;;;;;;;5.70;4.83;;;;;;;-143.84;75.84;45056.69;5049016;28;20459;-56
2023/07/15 01:05:21;;;;;;;9.93;4.70;;;;;;;-143.84;76.16;45030.03;5049290;28;20499;-56
2023/07/15 01:07:48;;;;;;;7.60;3.97;;;;;;;-143.84;75.94;45070.00;5048893;28;20442;-56
2023/07/15 01:10:16;;;;;;;14.90;5.03;;;;;;;-143.84;76.38;45041.44;5049222;28;20507;-56
2023/07/15 01:12:43;;;;;;;12.30;4.90;;;;;;;-143.84;76.72;45056.69;5048945;28;21185;-56
2023/07/15 01:15:10;;;;;;;10.10;4.63;;;;;;;-143.84;76.55;45035.75;5049183;28;20434;-56
2023/07/15 01:17:38;;;;;;;16.93;4.63;;;;;;;-143.84;76.46;45054.78;5048956;28;20998;-56
2023/07/15 01:20:06;;;;;;;5.97;3.73;;;;;;;-143.84;76.63;45039.53;5048939;28;20848;-56
2023/07/15 01:22:37;;;;;;;15.03;4.43;;;;;;;-143.84;76.69;45056.69;5048813;28;20450;-56
2023/07/15 01:25:06;;;;;;;8.50;4.13;;;;;;;-143.84;76.81;45056.69;5048660;28;20446;-56
2023/07/15 01:27:33;;;;;;;5.80;4.17;;;;;;;-143.84;76.79;45043.34;5048941;28;20456;-56
2023/07/15 01:30:01;;;;;;;6.33;3.67;;;;;;;-143.84;76.70;45068.13;5048462;28;20442;-56
2023/07/15 01:32:28;;;;;;;9.33;4.07;;;;;;;-143.84;76.77;45045.25;5048637;28;20469;-56
2023/07/15 01:34:55;;;;;;;9.37;4.20;;;;;;;-143.84;76.58;45066.22;5048758;28;21001;-56
2023/07/15 01:37:22;;;;;;;4.80;4.23;;;;;;;-143.84;76.61;45050.97;5048830;28;20881;-56
2023/07/15 01:39:50;;;;;;;16.70;4.90;;;;;;;-143.84;76.83;45052.88;5048593;28;20484;-56
2023/07/15 01:42:18;;;;;;;19.47;4.53;;;;;;;-143.84;76.93;45052.88;5048647;28;20815;-56
2023/07/15 01:44:45;;;;;;;13.33;3.90;;;;;;;-143.84;76.48;45068.13;5048617;28;20470;-56
2023/07/15 01:47:12;;;;;;;11.17;4.70;;;;;;;-143.84;76.55;45066.22;5048361;28;20476;-56
2023/07/15 01:49:39;;;;;;;36.93;5.97;;;;;;;-143.84;76.54;45039.53;5048649;28;20494;-56
2023/07/15 01:52:07;;;;;;;21.27;5.67;;;;;;;-143.84;76.64;45045.25;5048464;28;21343;-56
2023/07/15 01:54:35;;;;;;;7.10;3.60;;;;;;;-143.84;76.54;45071.91;5048634;28;20539;-56
2023/07/15 01:57:03;;;;;;;5.10;3.37;;;;;;;-143.84;75.71;45052.88;5048493;28;20870;-56
2023/07/15 01:59:30;;;;;;;4.50;3.30;;;;;;;-143.84;75.22;45035.75;5048546;28;20899;-56
2023/07/15 02:01:58;;;;;;;7.00;4.00;;;;;;;-143.84;75.32;45066.22;5049664;28;20441;-56
2023/07/15 02:04:25;;;;;;;4.63;3.40;;;;;;;-143.84;75.18;45068.13;5052737;28;20437;-56
2023/07/15 02:06:52;;;;;;;4.13;3.63;;;;;;;-143.84;75.32;45047.16;5052453;28;20443;-56
2023/07/15 02:09:19;;;;;;;3.93;3.30;;;;;;;-143.84;75.33;45033.84;5052712;28;20444;-56
2023/07/15 02:11:47;;;;;;;5.47;3.83;;;;;;;-143.84;74.72;45049.06;5052816;28;20444;-56
2023/07/15 02:14:15;;;;;;;5.80;4.20;;;;;;;-143.84;74.69;45045.25;5052488;28;20485;-56
2023/07/15 02:16:42;;;;;;;5.10;3.70;;;;;;;-143.84;74.58;45045.25;5052267;28;20440;-56
2023/07/15 02:19:10;;;;;;;5.43;3.63;;;;;;;-143.84;73.93;45060.50;5052321;28;20443;-56
2023/07/15 02:21:37;;;;;;;5.30;3.57;;;;;;;-143.84;74.14;45070.00;5052087;28;20449;-56
2023/07/15 02:24:05;;;;;;;7.47;3.33;;;;;;;-143.84;74.61;45052.88;5052295;28;20445;-56
2023/07/15 02:26:32;;;;;;;5.63;3.70;;;;;;;-143.84;74.27;45068.13;5051959;28;20453;-56
2023/07/15 02:28:59;;;;;;;3.90;3.40;;;;;;;-143.84;74.41;45037.66;5052135;28;20534;-56
2023/07/15 02:31:27;;;;;;;6.90;3.43;;;;;;;-143.84;74.41;45049.06;5051610;28;20482;-56
2023/07/15 02:33:55;;;;;;;5.50;3.73;;;;;;;-143.84;73.93;45066.22;5051623;28;20446;-56
2023/07/15 02:36:22;;;;;;;7.07;3.73;;;;;;;-143.84;73.64;45073.81;5051766;28;20503;-56
2023/07/15 02:38:49;;;;;;;5.30;3.20;;;;;;;-143.84;73.14;45037.66;5051681;28;20477;-56
2023/07/15 02:41:16;;;;;;;8.23;3.40;;;;;;;-143.84;73.60;45068.13;5051762;28;20803;-56
2023/07/15 02:43:45;;;;;;;10.57;4.13;;;;;;;-143.84;73.48;45064.31;5051741;28;20436;-56
2023/07/15 02:46:12;;;;;;;10.00;3.90;;;;;;;-143.84;73.17;45052.88;5051300;28;20493;-56
2023/07/15 02:48:40;;;;;;;5.83;4.07;;;;;;;-143.84;73.25;45052.88;5051631;28;20450;-56
2023/07/15 02:51:07;;;;;;;10.93;3.90;;;;;;;-143.84;73.22;45056.69;5051513;28;20451;-56
2023/07/15 02:53:34;;;;;;;4.53;3.43;;;;;;;-143.84;72.95;45041.44;5051538;28;20467;-56
2023/07/15 02:56:02;;;;;;;6.33;4.37;;;;;;;-143.84;73.18;45054.78;5051376;28;20445;-56
2023/07/15 02:58:29;;;;;;;7.00;4.00;;;;;;;-143.84;72.99;45028.13;5051296;28;20484;-56
2023/07/15 03:00:56;;;;;;;7.73;3.33;;;;;;;-143.84;72.59;45047.16;5051510;28;21016;-56
2023/07/15 03:03:23;;;;;;;3.63;3.33;;;;;;;-143.84;72.64;45062.41;5051614;28;20476;-56
2023/07/15 03:05:54;;;;;;;7.67;3.97;;;;;;;-143.84;72.79;45073.81;5051581;28;20441;-56
2023/07/15 03:08:21;;;;;;;5.00;3.80;;;;;;;-143.84;72.53;45052.88;5051274;28;20511;-56
2023/07/15 03:10:49;;;;;;;3.57;3.27;;;;;;;-143.84;72.82;45031.94;5050945;28;20437;-56
2023/07/15 03:13:16;;;;;;;6.50;3.70;;;;;;;-143.84;72.62;45039.53;5050240;28;20474;-56
2023/07/15 03:15:44;;;;;;;4.90;4.10;;;;;;;-143.84;72.59;45077.63;5051115;28;20460;-56
2023/07/15 03:18:11;;;;;;;4.20;3.37;;;;;;;-143.84;71.94;45054.78;5051058;28;20488;-56
2023/07/15 03:20:39;;;;;;;7.47;4.40;;;;;;;-143.84;72.03;45050.97;5050962;28;20440;-56
2023/07/15 03:23:08;;;;;;;4.07;3.50;;;;;;;-143.84;71.94;45045.25;5051072;28;20810;-56
2023/07/15 03:25:35;;;;;;;6.93;3.77;;;;;;;-143.84;72.15;45031.94;5050765;28;20540;-56
2023/07/15 03:28:02;;;;;;;5.27;3.80;;;;;;;-143.84;72.20;45047.16;5050933;28;20449;-56
2023/07/15 03:30:29;;;;;;;5.17;3.80;;;;;;;-143.84;71.51;45071.91;5050935;28;20440;-56
2023/07/15 03:32:57;;;;;;;5.73;3.37;;;;;;;-143.84;71.53;45003.38;5050869;28;21028;-56
2023/07/15 03:35:24;;;;;;;6.17;3.10;;;;;;;-143.84;70.49;45056.69;5050911;28;20935;-56
2023/07/15 03:37:51;;;;;;;4.73;3.57;;;;;;;-143.84;68.98;45020.50;5050768;28;20493;-57
2023/07/15 03:40:21;;;;;;;5.30;3.37;;;;;;;-143.84;66.10;45037.66;5050846;28;20437;-64
2023/07/15 03:42:48;;;;;;;5.53;3.37;;;;;;;-143.84;62.02;45018.59;5050516;28;20936;-56
2023/07/15 03:45:15;;;;;;;4.57;3.60;;;;;;;-143.84;58.23;45012.88;5050648;28;20508;-57
2023/07/15 03:47:42;;;;;;;4.10;3.37;;;;;;;-143.84;56.00;44972.91;5050005;28;20559;-56
2023/07/15 03:50:10;;;;;;;11.13;3.77;;;;;;;-143.84;53.67;44993.84;5050700;28;20442;-57
2023/07/15 03:52:37;;;;;;;8.50;3.40;;;;;;;-143.84;51.85;44993.84;5030509;28;20451;-57
2023/07/15 03:55:05;;;;;;;7.13;4.17;;;;;;;-143.84;50.51;44971.00;5030313;28;20495;-57
2023/07/15 03:57:34;;;;;;;4.97;3.60;;;;;;;-143.84;48.31;44961.47;5030313;28;20485;-57
2023/07/15 04:00:06;;;;;;;7.20;3.30;;;;;;;-143.84;48.06;44971.00;5030440;28;20516;-57
2023/07/15 04:02:33;;;;;;;5.40;3.23;;;;;;;-143.84;47.46;44940.53;5030249;28;20439;-57
2023/07/15 04:05:01;;;;;;;7.03;3.30;;;;;;;-143.84;46.80;44948.16;5030341;28;20533;-57
2023/07/15 04:07:28;;;;;;;4.03;3.10;;;;;;;-143.84;46.58;44942.44;5030283;28;20928;-57
2023/07/15 04:09:55;;;;;;;6.80;2.87;;;;;;;-143.84;45.07;44904.34;5036833;28;20861;-57
2023/07/15 04:12:22;;;;;;;3.90;3.60;;;;;;;-143.84;45.31;44931.00;5049962;28;20653;-57
2023/07/15 04:14:51;;;;;;;5.30;3.37;;;;;;;-143.84;44.72;44923.41;5049844;28;20434;-57
2023/07/15 04:17:18;;;;;;;6.03;3.40;;;;;;;-143.84;43.93;44915.78;5049756;28;20458;-57
2023/07/15 04:19:45;;;;;;;2.70;2.00;;;;;;;-143.84;44.17;44913.88;5049769;28;20526;-57
2023/07/15 04:22:13;;;;;;;6.70;3.20;;;;;;;-143.84;43.90;44915.78;5049660;28;20442;-57
2023/07/15 04:24:40;;;;;;;4.33;3.20;;;;;;;-143.84;43.10;44898.66;5049475;28;20439;-57
2023/07/15 04:27:07;;;;;;;9.70;3.03;;;;;;;-143.84;42.92;44911.97;5049684;28;20438;-57
2023/07/15 04:29:34;;;;;;;3.87;2.87;;;;;;;-143.84;42.51;44911.97;5049646;28;20442;-57
2023/07/15 04:32:02;;;;;;;3.20;2.50;;;;;;;-143.84;42.54;44898.66;5049459;28;20454;-57
2023/07/15 04:34:30;;;;;;;5.70;2.50;;;;;;;-143.84;41.78;44923.41;5049500;28;21019;-57
2023/07/15 04:36:57;;;;;;;4.40;3.23;;;;;;;-143.84;41.76;44898.66;5049448;28;20453;-57
2023/07/15 04:39:27;;;;;;;9.77;3.13;;;;;;;-143.84;41.62;44898.66;5049537;28;20856;-57
2023/07/15 04:41:54;;;;;;;5.70;3.80;;;;;;;-143.84;40.93;44900.53;5049823;28;20521;-57
2023/07/15 04:44:21;;;;;;;3.50;3.20;;;;;;;-143.84;41.33;44915.78;5049454;28;20456;-57
2023/07/15 04:46:48;;;;;;;3.30;3.00;;;;;;;-143.84;40.87;44889.13;5049117;28;20545;-57
2023/07/15 04:49:17;;;;;;;10.43;3.00;;;;;;;-143.84;40.94;44889.13;5049655;28;20472;-57
2023/07/15 04:51:44;;;;;;;3.07;2.73;;;;;;;-143.84;40.74;44898.66;5049114;28;20472;-57
2023/07/15 04:54:12;;;;;;;2.90;2.70;;;;;;;-143.84;40.46;44896.75;5049257;28;20989;-64
2023/07/15 04:56:39;;;;;;;5.10;2.60;;;;;;;-143.84;40.50;44913.88;5049574;28;20449;-64
2023/07/15 04:59:07;;;;;;;3.00;2.80;;;;;;;-143.84;39.92;44875.78;5049359;28;20489;-64
2023/07/15 05:01:34;;;;;;;3.03;2.83;;;;;;;-143.84;40.56;44904.34;5049069;28;20435;-64
2023/07/15 05:04:01;;;;;;;2.77;2.57;;;;;;;-143.84;40.60;44898.66;5049118;28;20446;-64
2023/07/15 05:06:31;;;;;;;4.80;2.93;;;;;;;-143.84;40.41;44885.31;5049109;28;20465;-64
2023/07/15 05:08:58;;;;;;;3.20;2.90;;;;;;;-143.84;40.52;44902.44;5048970;28;21002;-64
2023/07/15 05:11:26;;;;;;;4.63;3.10;;;;;;;-143.84;40.29;44885.31;5048758;28;20446;-64
2023/07/15 05:13:53;;;;;;;6.17;2.93;;;;;;;-143.84;39.86;44911.97;5047559;28;20442;-64
2023/07/15 05:16:21;;;;;;;4.30;3.03;;;;;;;-143.84;39.72;44868.19;5046265;28;20487;-64
2023/07/15 05:18:48;;;;;;;11.33;2.90;;;;;;;-143.84;39.73;44866.28;5048069;28;20478;-64
2023/07/15 05:21:15;;;;;;;3.47;3.17;;;;;;;-143.84;39.59;44913.88;5048297;28;20538;-64
2023/07/15 05:23:44;;;;;;;2.60;2.40;;;;;;;-143.84;39.87;44883.41;5048675;28;20458;-64
2023/07/15 05:26:11;;;;;;;5.43;2.60;;;;;;;-143.84;39.62;44864.38;5044792;28;20512;-64
2023/07/15 05:28:38;;;;;;;3.87;2.53;;;;;;;-143.84;39.49;44868.19;5048945;28;20450;-64
2023/07/15 05:31:05;;;;;;;6.23;2.93;;;;;;;-143.84;39.32;44873.88;5049250;28;20442;-64
2023/07/15 05:33:33;;;;;;;9.53;2.63;;;;;;;-143.84;38.75;44883.41;5049067;28;20504;-64
2023/07/15 05:36:00;;;;;;;2.70;2.47;;;;;;;-143.84;38.49;44866.28;5048283;28;20439;-64
2023/07/15 05:38:28;;;;;;;3.43;3.10;;;;;;;-143.84;39.32;44841.53;5048348;28;20485;-64
2023/07/15 05:40:56;;;;;;;5.17;2.60;;;;;;;-143.84;38.85;44870.09;5048674;28;20881;-64
2023/07/15 05:43:23;;;;;;;6.93;2.80;;;;;;;-143.84;37.95;44873.88;5048916;28;20500;-56
2023/07/15 05:45:51;;;;;;;4.00;2.90;;;;;;;-143.84;37.35;44871.97;5048340;28;20494;-56
2023/07/15 05:48:18;;;;;;;6.37;2.37;;;;;;;-143.84;37.68;44873.88;5048793;28;20947;-56
2023/07/15 05:50:45;;;;;;;5.77;2.80;;;;;;;-143.84;37.60;44858.66;5048405;28;20453;-56
2023/07/15 05:53:12;;;;;;;3.80;2.50;;;;;;;-143.84;36.77;44883.41;5048058;28;20866;-57
2023/07/15 05:55:40;;;;;;;3.87;2.30;;;;;;;-143.84;37.17;44835.81;5047981;28;20450;-57
2023/07/15 05:58:10;;;;;;;10.27;3.03;;;;;;;-143.84;37.80;44887.22;5047946;28;20478;-57
2023/07/15 06:00:38;;;;;;;7.40;2.53;;;;;;;-143.84;37.58;44856.75;5047977;28;21017;-57
2023/07/15 06:03:05;;;;;;;4.03;2.47;;;;;;;-143.84;37.47;44856.75;5048081;28;20446;-56
2023/07/15 06:05:32;;;;;;;8.70;3.00;;;;;;;-143.84;37.25;44832.00;5047791;28;20492;-57
2023/07/15 06:07:59;;;;;;;9.03;2.70;;;;;;;-143.84;36.99;44830.09;5048211;28;20454;-57
2023/07/15 06:10:26;;;;;;;4.90;2.53;;;;;;;-143.84;35.79;44839.63;5043805;28;21037;-57
2023/07/15 06:12:54;;;;;;;5.60;2.73;;;;;;;-143.84;35.79;44828.19;5047776;28;20481;-57
2023/07/15 06:15:23;;;;;;;9.33;2.33;;;;;;;-143.84;35.96;44891.03;5047716;28;20443;-56
2023/07/15 06:17:50;;;;;;;2.60;2.40;;;;;;;-143.84;36.39;44862.47;5047881;28;20442;-56
2023/07/15 06:20:19;;;;;;;2.63;2.43;;;;;;;-143.84;36.47;44873.88;5047970;28;20442;-56
2023/07/15 06:22:46;;;;;;;4.83;2.10;;;;;;;-143.84;35.45;44854.84;5045760;28;20450;-57
2023/07/15 06:25:13;;;;;;;2.63;2.43;;;;;;;-143.84;35.59;44862.47;5044955;28;20450;-57
2023/07/15 06:27:41;;;;;;;3.63;2.40;;;;;;;-143.84;36.53;44852.94;5047938;28;20447;-56
2023/07/15 06:30:09;;;;;;;2.63;2.43;;;;;;;-143.84;36.86;44849.13;5045971;28;20514;-56
2023/07/15 06:32:38;;;;;;;4.13;2.80;;;;;;;-143.84;36.47;44875.78;5044672;28;20861;-57
2023/07/15 06:35:06;;;;;;;9.60;2.37;;;;;;;-143.84;36.30;44885.31;5047461;28;20449;-57
2023/07/15 06:37:35;;;;;;;12.03;2.90;;;;;;;-143.84;36.54;44873.88;5047682;28;20525;-57
2023/07/15 06:40:03;;;;;;;7.03;2.70;;;;;;;-143.84;35.76;44860.56;5047569;28;20482;-56
2023/07/15 06:42:31;;;;;;;3.30;3.00;;;;;;;-143.84;36.33;44849.13;5047447;28;20469;-57
2023/07/15 06:44:58;;;;;;;3.80;2.63;;;;;;;-143.84;36.05;44862.47;5047203;28;20449;-63
2023/07/15 06:47:25;;;;;;;7.03;3.00;;;;;;;-143.84;35.63;44832.00;5047101;28;20931;-63
2023/07/15 06:49:54;;;;;;;3.60;2.30;;;;;;;-143.84;35.72;44833.91;5051309;28;20457;-63
2023/07/15 06:52:21;;;;;;;3.13;2.83;;;;;;;-143.84;35.46;44832.00;5050903;28;20507;-63
2023/07/15 06:54:48;;;;;;;5.80;2.80;;;;;;;-143.84;34.84;44862.47;5050931;28;20508;-63
2023/07/15 06:57:15;;;;;;;4.47;2.80;;;;;;;-143.84;35.39;44841.53;5050743;28;20450;-63
2023/07/15 06:59:42;;;;;;;8.23;3.73;;;;;;;-143.84;35.37;44843.44;5050883;28;21804;-63
2023/07/15 07:02:09;;;;;;;3.73;2.23;;;;;;;-143.84;35.10;44841.53;5050533;28;20990;-63
2023/07/15 07:04:36;;;;;;;6.50;2.67;;;;;;;-143.84;35.36;44824.38;5040357;28;20466;-63
2023/07/15 07:07:05;;;;;;;3.23;2.20;;;;;;;-143.84;35.25;44826.28;5048368;28;20445;-63
2023/07/15 07:09:33;;;;;;;7.07;2.63;;;;;;;-143.84;35.18;44799.63;5050475;28;20967;-63
2023/07/15 07:12:00;;;;;;;7.43;2.10;;;;;;;-143.84;34.63;44845.31;5050764;28;20976;-63
2023/07/15 07:14:27;;;;;;;6.57;2.60;;;;;;;-143.84;35.39;44833.91;5050199;28;20485;-63
2023/07/15 07:16:54;;;;;;;4.80;2.70;;;;;;;-143.84;35.78;44805.34;5050405;28;20449;-63
2023/07/15 07:19:21;;;;;;;3.77;2.50;;;;;;;-143.84;35.84;44841.53;5050492;28;20841;-63
2023/07/15 07:21:48;;;;;;;3.90;2.40;;;;;;;-143.84;35.56;44832.00;5050480;28;20450;-63
2023/07/15 07:24:17;;;;;;;11.57;3.00;;;;;;;-143.84;35.50;44828.19;5050520;28;20875;-63
2023/07/15 07:26:44;;;;;;;3.03;2.83;;;;;;;-143.84;35.39;44812.97;5050283;28;20928;-63
2023/07/15 07:29:11;;;;;;;2.87;2.57;;;;;;;-143.84;35.07;44801.53;5040685;28;20493;-63
2023/07/15 07:31:38;;;;;;;4.90;2.27;;;;;;;-143.84;34.75;44832.00;5049609;28;20901;-63
2023/07/15 07:34:05;;;;;;;4.83;2.27;;;;;;;-143.84;34.51;44803.44;5050703;28;20447;-63
2023/07/15 07:36:33;;;;;;;13.47;2.97;;;;;;;-143.84;35.74;44793.91;5050712;28;21001;-63
2023/07/15 07:39:00;;;;;;;4.23;2.77;;;;;;;-143.84;34.79;44843.44;5050493;28;21099;-63
2023/07/15 07:41:28;;;;;;;10.80;3.60;;;;;;;-143.84;35.66;44858.66;5050701;28;20465;-63
2023/07/15 08:13:22;;;;;;;5.03;2.90;;;;;;;-143.84;33.54;44824.38;4796199;29;20485;-63
2023/07/15 08:18:46;;;;;;;2.27;2.00;;;;;;;-143.84;33.01;44816.78;4901591;28;20460;-62
2023/07/15 08:21:25;;;;;;;4.70;2.23;;;;;;;-143.84;34.34;44816.78;4988320;28;20449;-63
2023/07/15 08:24:06;;;;;;;6.00;2.63;;;;;;;-143.84;34.98;44839.63;4988183;28;20836;-64
2023/07/15 08:26:40;;;;;;;2.60;2.50;;;;;;;-143.84;34.39;44805.34;4996477;28;21090;-64
2023/07/15 08:29:09;;;;;;;5.53;2.90;;;;;;;-143.84;32.80;44824.38;5042883;28;20504;-64
2023/07/15 09:38:35;;;;;;;2.87;2.60;;;;;;;-143.84;36.70;44873.88;5027107;28;20532;-61
